Bixby, Oklahoma
Current Conditions -  °F | °C
As of 12:53 PM on Friday 31 Oct 2014 (Local Time) from KRVS Reporting Station
Light Rain Light Rain  
Wind Chill: 52°   Ceiling: Unl
Heat Index: 52°   Visibility: 10mi
Dew Point: 31°   Wind: 13mph
Humidity: 45%   Direction: 10°N
Pressure: 30.43"   Gusts: 18mph
Location:  35.94°N, 95.88°W
Report Text: KRVS 311753Z 01011G16KT 10SM -RA CLR 11/M01 A3043 RMK AO2 SLP313 P0000 60000 T01111006 10117 20083 50008
Loading
Personal Weather Stations






























Interactive Weather Map
Tropical Storm Tracking
New forecast layout! Learn more

10-Day Weather Forecast

Advertisements
Track Severe Weather on mobile